createdAt,value
2019-05-09T00:00:25.522Z,12.80
2019-05-09T00:02:57.797Z,11.43
2019-05-09T00:05:30.018Z,8.30
2019-05-09T00:08:03.455Z,8.70
2019-05-09T00:10:41.645Z,9.90
2019-05-09T00:13:10.008Z,10.83
2019-05-09T00:15:43.683Z,11.90
2019-05-09T00:18:17.328Z,9.93
2019-05-09T00:20:49.602Z,7.93
2019-05-09T00:23:23.860Z,9.00
2019-05-09T00:25:55.777Z,10.90
2019-05-09T00:28:28.047Z,8.03
2019-05-09T00:31:00.313Z,9.27
2019-05-09T00:33:34.329Z,10.27
2019-05-09T00:36:06.708Z,10.30
2019-05-09T00:38:38.932Z,9.43
2019-05-09T00:41:11.191Z,8.40
2019-05-09T00:43:43.643Z,11.20
2019-05-09T00:46:15.985Z,11.20
2019-05-09T00:48:48.259Z,9.40
2019-05-09T00:51:20.450Z,7.63
2019-05-09T00:53:53.649Z,10.30
2019-05-09T00:56:26.313Z,11.17
2019-05-09T00:58:58.708Z,10.53
2019-05-09T01:01:30.915Z,7.90
2019-05-09T01:04:04.321Z,7.10
2019-05-09T01:06:36.839Z,8.63
2019-05-09T01:09:09.078Z,8.47
2019-05-09T01:11:41.102Z,11.17
2019-05-09T01:14:14.347Z,7.73
2019-05-09T01:16:46.691Z,9.17
2019-05-09T01:19:18.905Z,8.50
2019-05-09T01:21:51.126Z,9.33
2019-05-09T01:24:23.405Z,11.93
2019-05-09T01:26:55.443Z,12.57
2019-05-09T01:29:27.680Z,11.17
2019-05-09T01:31:59.907Z,11.40
2019-05-09T01:34:33.141Z,11.50
2019-05-09T01:37:05.575Z,9.13
2019-05-09T01:39:37.828Z,10.47
2019-05-09T01:42:10.580Z,10.63
2019-05-09T01:44:44.047Z,12.77
2019-05-09T01:47:16.365Z,13.13
2019-05-09T01:49:48.634Z,10.33
2019-05-09T01:52:23.185Z,10.60
2019-05-09T01:54:55.100Z,9.93
2019-05-09T01:57:27.315Z,7.93
2019-05-09T01:59:59.587Z,12.00
2019-05-09T02:02:33.842Z,9.93
2019-05-09T02:05:05.892Z,12.97
2019-05-09T02:07:38.150Z,8.47
2019-05-09T02:10:10.510Z,10.00
2019-05-09T02:12:43.098Z,8.00
2019-05-09T02:15:15.615Z,9.80
2019-05-09T02:17:58.186Z,9.27
2019-05-09T02:20:24.059Z,8.67
2019-05-09T02:22:55.854Z,10.97
2019-05-09T02:25:28.176Z,9.50
2019-05-09T02:28:00.387Z,8.73
2019-05-09T02:30:35.787Z,9.27
2019-05-09T02:33:06.604Z,9.13
2019-05-09T02:35:47.900Z,9.00
2019-05-09T02:38:12.771Z,9.53
2019-05-09T02:40:44.975Z,9.83
2019-05-09T02:43:18.702Z,10.73
2019-05-09T02:45:52.826Z,7.73
2019-05-09T02:48:25.295Z,12.63
2019-05-09T02:51:00.249Z,9.10
2019-05-09T02:53:31.473Z,8.23
2019-05-09T02:56:03.776Z,9.23
2019-05-09T02:58:38.771Z,11.03
2019-05-09T03:01:09.954Z,14.13
2019-05-09T03:03:42.151Z,10.33
2019-05-09T03:06:14.368Z,13.23
2019-05-09T03:08:49.106Z,9.93
2019-05-09T03:11:22.893Z,8.57
2019-05-09T03:13:58.549Z,10.40
2019-05-09T03:16:31.073Z,9.20
2019-05-09T03:19:03.333Z,9.33
2019-05-09T03:21:38.775Z,7.57
2019-05-09T03:24:10.097Z,7.33
2019-05-09T03:26:42.572Z,8.47
2019-05-09T03:29:15.006Z,8.87
2019-05-09T03:31:50.188Z,6.80
2019-05-09T03:34:21.267Z,11.97
2019-05-09T03:36:53.539Z,8.93
2019-05-09T03:39:27.588Z,8.90
2019-05-09T03:42:01.088Z,8.23
2019-05-09T03:44:33.442Z,10.43
2019-05-09T03:47:05.654Z,10.33
2019-05-09T03:49:37.883Z,7.77
2019-05-09T03:52:10.135Z,10.23
2019-05-09T03:54:42.358Z,8.83
2019-05-09T03:57:14.566Z,7.07
2019-05-09T03:59:48.105Z,6.67
2019-05-09T04:02:20.475Z,7.93
2019-05-09T04:04:52.730Z,8.53
2019-05-09T04:07:24.939Z,8.13
2019-05-09T04:09:58.513Z,13.13
2019-05-09T04:12:30.909Z,13.03
2019-05-09T04:15:03.393Z,9.83
2019-05-09T04:17:35.767Z,11.57
2019-05-09T04:20:08.214Z,9.90
2019-05-09T04:22:40.707Z,9.03
2019-05-09T04:25:13.313Z,12.00
2019-05-09T04:27:47.912Z,7.60
2019-05-09T04:30:19.505Z,9.90
2019-05-09T04:32:51.746Z,8.27
2019-05-09T04:35:23.950Z,8.63
2019-05-09T04:37:58.270Z,8.67
2019-05-09T04:40:32.204Z,8.53
2019-05-09T04:43:12.001Z,7.83
2019-05-09T04:45:41.846Z,9.10
2019-05-09T04:48:20.250Z,8.43
2019-05-09T04:50:47.907Z,6.60
2019-05-09T04:53:21.448Z,8.57
2019-05-09T04:55:53.812Z,9.70
2019-05-09T04:58:27.396Z,9.37
2019-05-09T05:00:59.984Z,10.17
2019-05-09T05:03:32.277Z,7.87
2019-05-09T05:06:04.854Z,8.57
2019-05-09T05:08:37.590Z,9.97
2019-05-09T05:11:10.051Z,12.20
2019-05-09T05:13:42.349Z,7.47
2019-05-09T05:16:14.574Z,6.63
2019-05-09T05:18:47.812Z,8.83
2019-05-09T05:21:20.606Z,7.53
2019-05-09T05:23:53.060Z,9.53
2019-05-09T05:26:27.570Z,9.13
2019-05-09T05:28:59.347Z,8.60
2019-05-09T05:31:31.570Z,9.40
2019-05-09T08:27:48.705Z,11.10
2019-05-09T08:30:20.970Z,10.87
2019-05-09T08:32:53.243Z,11.10
2019-05-09T08:35:28.094Z,12.50
2019-05-09T08:38:00.492Z,7.87
2019-05-09T08:40:32.783Z,11.87
2019-05-09T08:43:07.390Z,13.37
2019-05-09T08:45:38.964Z,16.00
2019-05-09T08:48:11.216Z,11.43
2019-05-09T08:50:43.500Z,14.27
2019-05-09T08:53:18.156Z,13.53
2019-05-09T08:55:49.900Z,12.30
2019-05-09T08:58:22.253Z,7.77
2019-05-09T09:00:54.700Z,12.13
2019-05-09T09:03:29.007Z,10.93
2019-05-09T09:06:02.352Z,13.60
2019-05-09T09:08:34.622Z,11.83
2019-05-09T09:11:08.605Z,12.37
2019-05-09T09:13:40.893Z,13.40
2019-05-09T09:16:18.716Z,13.20
2019-05-09T09:18:48.140Z,13.00
2019-05-09T09:21:20.653Z,11.13
2019-05-09T09:23:52.880Z,14.03
2019-05-09T09:26:27.546Z,11.53
2019-05-09T09:28:59.034Z,13.13
2019-05-09T09:31:31.251Z,11.83
2019-05-09T09:34:03.489Z,11.87
2019-05-09T09:36:35.948Z,15.40
2019-05-09T09:39:08.272Z,12.93
2019-05-09T09:41:40.635Z,11.00
2019-05-09T09:44:13.031Z,13.90
2019-05-09T09:46:45.302Z,11.43
2019-05-09T09:49:18.141Z,11.20
2019-05-09T09:51:50.502Z,11.27
2019-05-09T09:54:22.788Z,9.30
2019-05-09T09:56:55.010Z,15.00
2019-05-09T09:59:28.260Z,14.97
2019-05-09T10:02:00.571Z,10.80
2019-05-09T10:04:32.839Z,12.80
2019-05-09T10:07:08.692Z,12.07
2019-05-09T10:09:40.073Z,11.30
2019-05-09T10:12:12.267Z,9.00
2019-05-09T10:14:44.482Z,10.53
2019-05-09T10:17:17.975Z,10.60
2019-05-09T10:19:50.660Z,9.73
2019-05-09T10:22:25.417Z,11.57
2019-05-09T10:24:59.266Z,8.90
2019-05-09T10:27:32.628Z,12.17
2019-05-09T10:30:04.980Z,13.70
2019-05-09T10:32:38.381Z,11.97
2019-05-09T10:35:10.787Z,13.87
2019-05-09T10:37:42.992Z,14.13
2019-05-09T10:40:15.331Z,15.43
2019-05-09T10:42:48.384Z,12.10
2019-05-09T10:45:20.764Z,13.07
2019-05-09T10:47:52.814Z,9.23
2019-05-09T10:50:25.039Z,9.50
2019-05-09T10:52:58.455Z,11.43
2019-05-09T10:55:31.992Z,12.27
2019-05-09T10:58:04.357Z,13.03
2019-05-09T11:00:39.325Z,10.73
2019-05-09T11:03:10.564Z,14.53
2019-05-09T11:05:42.807Z,13.13
2019-05-09T11:08:15.022Z,11.47
2019-05-09T11:10:47.550Z,10.53
2019-05-09T11:13:19.943Z,9.40
2019-05-09T11:15:52.202Z,9.60
2019-05-09T11:18:24.455Z,8.07
2019-05-09T11:20:58.094Z,10.50
2019-05-09T11:23:30.566Z,17.13
2019-05-09T11:26:02.810Z,17.20
2019-05-09T11:28:35.035Z,14.40
2019-05-09T11:31:08.130Z,13.90
2019-05-09T11:33:40.590Z,13.27
2019-05-09T11:36:13.093Z,9.50
2019-05-09T11:38:49.099Z,10.97
2019-05-09T11:41:19.844Z,9.83
2019-05-09T11:43:52.053Z,17.60
2019-05-09T11:46:24.279Z,11.03
2019-05-09T11:48:58.518Z,11.37
2019-05-09T11:51:30.852Z,8.53
2019-05-09T11:54:03.081Z,11.40
2019-05-09T11:56:35.285Z,13.53
2019-05-09T11:59:07.986Z,12.43
2019-05-09T12:01:40.537Z,11.87
2019-05-09T12:04:12.812Z,12.33
2019-05-09T12:06:45.102Z,12.27
2019-05-09T12:09:17.366Z,10.90
2019-05-09T12:11:49.752Z,11.40
2019-05-09T12:14:22.367Z,9.53
2019-05-09T12:16:54.991Z,10.37
2019-05-09T12:19:29.548Z,9.40
2019-05-09T12:22:01.125Z,8.57
2019-05-09T12:24:33.447Z,10.53
2019-05-09T12:27:05.723Z,11.53
2019-05-09T12:29:38.699Z,10.57
2019-05-09T12:32:11.055Z,10.80
2019-05-09T12:34:43.343Z,11.43
2019-05-09T12:37:18.230Z,15.07
2019-05-09T12:39:50.534Z,11.23
2019-05-09T12:42:23.751Z,11.43
2019-05-09T12:44:58.747Z,9.75
2019-05-09T12:47:31.391Z,10.70
2019-05-09T12:50:08.448Z,12.07
2019-05-09T12:52:40.193Z,10.93
2019-05-09T12:55:14.553Z,11.93
2019-05-09T12:57:48.937Z,10.60
2019-05-09T13:00:20.765Z,12.20
2019-05-09T13:02:53.032Z,12.80
2019-05-09T13:05:27.394Z,12.77
2019-05-09T13:07:59.320Z,13.10
2019-05-09T13:10:31.525Z,10.63
2019-05-09T13:13:08.769Z,11.20
2019-05-09T13:15:40.058Z,10.87
2019-05-09T13:18:22.002Z,10.33
2019-05-09T13:20:48.748Z,11.17
2019-05-09T13:23:21.194Z,11.23
2019-05-09T13:25:53.627Z,10.17
2019-05-09T13:28:25.891Z,9.07
2019-05-09T13:30:58.553Z,9.97
2019-05-09T13:33:31.335Z,9.10
2019-05-09T13:36:03.633Z,8.90
2019-05-09T13:38:37.859Z,10.77
2019-05-09T13:41:09.967Z,10.80
2019-05-09T13:43:51.555Z,11.10
2019-05-09T13:46:18.472Z,12.03
2019-05-09T13:49:05.769Z,13.73
2019-05-09T13:51:24.672Z,13.87
2019-05-09T13:53:59.070Z,13.37
2019-05-09T13:56:30.894Z,9.87
2019-05-09T13:59:03.332Z,14.33
2019-05-09T14:01:37.617Z,12.00
2019-05-09T14:04:09.554Z,9.27
2019-05-09T14:06:41.952Z,13.07
2019-05-09T14:09:14.173Z,12.83
2019-05-09T14:11:47.951Z,13.53
2019-05-09T14:14:20.403Z,12.40
2019-05-09T14:16:52.598Z,11.73
2019-05-09T14:19:36.187Z,13.87
2019-05-09T14:21:59.901Z,13.33
2019-05-09T14:24:32.150Z,16.53
2019-05-09T14:27:04.482Z,15.10
2019-05-09T14:29:38.396Z,14.40
2019-05-09T14:32:10.730Z,12.90
2019-05-09T14:34:44.192Z,13.77
2019-05-09T14:37:18.028Z,13.00
2019-05-09T14:39:58.401Z,13.50
2019-05-09T14:42:24.470Z,12.43
2019-05-09T14:44:58.481Z,13.27
2019-05-09T14:47:30.628Z,14.23
2019-05-09T14:50:03.087Z,12.50
2019-05-09T14:52:38.182Z,15.07
2019-05-09T14:55:09.254Z,11.97
2019-05-09T14:57:41.489Z,11.43
2019-05-09T15:00:13.722Z,12.73
2019-05-09T15:02:45.946Z,14.87
2019-05-09T15:05:18.944Z,15.13
2019-05-09T15:07:53.779Z,13.97
2019-05-09T15:10:25.520Z,15.37
2019-05-09T15:12:58.537Z,16.70
2019-05-09T15:15:32.718Z,20.77
2019-05-09T15:18:07.955Z,17.03
2019-05-09T15:20:39.222Z,15.77
2019-05-09T15:23:11.422Z,18.50
2019-05-09T15:25:43.691Z,15.63
2019-05-09T15:28:17.565Z,16.47
2019-05-09T15:30:50.001Z,18.07
2019-05-09T15:33:22.227Z,15.03
2019-05-09T15:35:55.079Z,14.67
2019-05-09T15:38:28.977Z,18.57
2019-05-09T15:41:01.593Z,16.17
2019-05-09T15:43:34.191Z,15.40
2019-05-09T15:46:08.410Z,17.93
2019-05-09T15:48:41.724Z,14.03
2019-05-09T15:51:14.848Z,16.77
2019-05-09T15:53:48.658Z,10.63
2019-05-09T15:56:21.084Z,20.03
2019-05-09T15:58:53.437Z,17.23
2019-05-09T16:01:27.875Z,13.43
2019-05-09T16:04:00.131Z,14.40
2019-05-09T16:06:33.371Z,13.50
2019-05-09T16:09:09.306Z,26.00
2019-05-09T16:11:43.113Z,16.63
2019-05-09T16:14:18.391Z,12.60
2019-05-09T16:16:50.996Z,17.00
2019-05-09T16:19:25.287Z,15.97
2019-05-09T16:21:57.508Z,17.50
2019-05-09T16:24:29.776Z,17.70
2019-05-09T16:27:02.085Z,16.97
2019-05-09T16:29:34.211Z,16.80
2019-05-09T16:32:08.828Z,17.43
2019-05-09T16:34:41.607Z,15.37
2019-05-09T16:37:13.846Z,13.77
2019-05-09T16:39:47.635Z,17.37
2019-05-09T16:42:21.422Z,17.87
2019-05-09T16:44:54.088Z,13.73
2019-05-09T16:47:28.712Z,17.03
2019-05-09T16:50:01.261Z,17.63
2019-05-09T16:52:34.942Z,13.83
2019-05-09T16:55:08.201Z,17.67
2019-05-09T16:57:41.998Z,14.67
2019-05-09T17:00:14.374Z,13.47
2019-05-09T17:02:48.110Z,15.30
2019-05-09T17:05:21.296Z,15.87
2019-05-09T17:07:55.452Z,14.20
2019-05-09T17:10:28.426Z,16.87
2019-05-09T17:13:01.381Z,14.47
2019-05-09T17:15:35.547Z,17.30
2019-05-09T17:18:10.065Z,14.67
2019-05-09T17:20:42.217Z,18.23
2019-05-09T17:23:15.752Z,18.47
2019-05-09T17:25:48.305Z,14.03
2019-05-09T17:28:20.898Z,15.97
2019-05-09T17:30:53.312Z,18.30
2019-05-09T17:33:28.455Z,13.17
2019-05-09T17:35:59.653Z,18.40
2019-05-09T17:38:32.169Z,13.33
2019-05-09T17:41:05.478Z,14.83
2019-05-09T17:43:38.351Z,20.83
2019-05-09T17:46:10.811Z,16.73
2019-05-09T17:48:43.113Z,11.93
2019-05-09T17:51:18.662Z,11.50
2019-05-09T17:53:52.010Z,12.50
2019-05-09T17:56:23.711Z,15.17
2019-05-09T17:58:57.871Z,12.30
2019-05-09T18:01:29.944Z,18.47
2019-05-09T18:04:02.578Z,11.30
2019-05-09T18:06:34.607Z,17.30
2019-05-09T18:09:08.428Z,15.57
2019-05-09T18:11:41.449Z,16.13
2019-05-09T18:14:13.918Z,16.97
2019-05-09T18:16:47.773Z,16.17
2019-05-09T18:19:20.383Z,16.47
2019-05-09T18:21:52.638Z,17.07
2019-05-09T18:24:25.224Z,18.93
2019-05-09T18:26:58.381Z,15.83
2019-05-09T18:29:30.908Z,16.27
2019-05-09T18:32:03.127Z,15.17
2019-05-09T18:34:37.859Z,16.40
2019-05-09T18:37:09.407Z,12.80
2019-05-09T18:39:41.673Z,23.27
2019-05-09T18:42:13.959Z,16.47
2019-05-09T18:44:47.658Z,15.77
2019-05-09T18:47:21.250Z,17.47
2019-05-09T18:49:53.543Z,19.63
2019-05-09T18:52:25.755Z,17.20
2019-05-09T18:54:58.127Z,16.43
2019-05-09T18:57:30.696Z,17.00
2019-05-09T19:00:03.080Z,19.20
2019-05-09T19:02:37.714Z,24.33
2019-05-09T19:05:12.956Z,11.30
2019-05-09T19:07:46.006Z,16.87
2019-05-09T19:10:18.275Z,12.03
2019-05-09T19:12:50.530Z,16.37
2019-05-09T19:15:22.741Z,12.00
2019-05-09T19:17:56.130Z,15.50
2019-05-09T19:20:28.341Z,12.83
2019-05-09T19:23:00.591Z,13.53
2019-05-09T19:25:32.936Z,10.97
2019-05-09T19:28:05.390Z,12.50
2019-05-09T19:30:37.526Z,11.60
2019-05-09T19:33:09.729Z,16.43
2019-05-09T19:35:42.332Z,14.73
2019-05-09T19:38:14.594Z,20.20
2019-05-09T19:40:47.076Z,11.30
2019-05-09T19:43:19.353Z,9.53
2019-05-09T19:45:52.615Z,19.10
2019-05-09T19:48:24.840Z,9.90
2019-05-09T19:50:59.351Z,15.73
2019-05-09T19:53:31.654Z,13.03
2019-05-09T19:56:04.303Z,16.80
2019-05-09T19:58:36.572Z,11.03
2019-05-09T20:01:08.961Z,16.93
2019-05-09T20:03:41.249Z,16.43
2019-05-09T20:06:16.463Z,14.27
2019-05-09T20:08:47.275Z,17.63
2019-05-09T20:11:19.692Z,15.93
2019-05-09T20:13:52.398Z,16.70
2019-05-09T20:16:24.696Z,10.87
2019-05-09T20:18:56.950Z,11.03
2019-05-09T20:21:29.595Z,4.93
2019-05-09T20:24:02.055Z,7.50
2019-05-09T20:26:34.457Z,5.30
2019-05-09T20:29:06.759Z,5.03
2019-05-09T20:31:39.065Z,9.87
2019-05-09T20:34:11.274Z,7.70
2019-05-09T20:36:43.543Z,9.10
2019-05-09T20:39:15.821Z,7.30
2019-05-09T20:41:48.010Z,7.70
2019-05-09T20:44:20.339Z,8.90
2019-05-09T20:46:52.567Z,11.00
2019-05-09T20:49:24.800Z,9.07
2019-05-09T20:51:58.240Z,11.33
2019-05-09T20:54:30.585Z,12.03
2019-05-09T20:57:03.815Z,12.80
2019-05-09T20:59:36.058Z,12.00
2019-05-09T21:02:08.348Z,10.63
2019-05-09T21:04:40.584Z,14.07
2019-05-09T21:07:13.274Z,12.97
2019-05-09T21:09:45.525Z,14.17
2019-05-09T21:12:17.835Z,14.57
2019-05-09T21:14:50.070Z,13.83
2019-05-09T21:17:22.547Z,13.83
2019-05-09T21:19:54.797Z,13.43
2019-05-09T21:22:26.822Z,13.10
2019-05-09T21:24:59.071Z,17.20
2019-05-09T21:27:31.304Z,15.57
2019-05-09T21:30:03.500Z,14.67
2019-05-09T21:32:37.006Z,14.00
2019-05-09T21:35:09.491Z,15.77
2019-05-09T21:37:41.715Z,14.63
2019-05-09T21:40:13.991Z,15.13
2019-05-09T21:42:46.309Z,13.97
2019-05-09T21:45:18.570Z,16.90
2019-05-09T21:47:50.891Z,18.13
2019-05-09T21:50:23.242Z,19.23
2019-05-09T21:52:56.601Z,17.23
2019-05-09T21:55:28.823Z,19.13
2019-05-09T21:58:00.846Z,16.37
2019-05-09T22:00:34.376Z,16.20
2019-05-09T22:03:06.921Z,16.87
2019-05-09T22:05:39.182Z,18.57
2019-05-09T22:08:11.504Z,19.30
2019-05-09T22:10:44.046Z,18.37
2019-05-09T22:13:16.224Z,20.93
2019-05-09T22:15:48.801Z,17.90
2019-05-09T22:18:21.275Z,18.57
2019-05-09T22:20:53.620Z,18.63
2019-05-09T22:23:25.995Z,21.83
2019-05-09T22:25:58.315Z,23.67
2019-05-09T22:28:30.561Z,19.80
2019-05-09T22:31:02.803Z,20.60
2019-05-09T22:33:35.095Z,20.23
2019-05-09T22:36:07.315Z,22.20
2019-05-09T22:38:43.168Z,23.17
2019-05-09T22:41:13.529Z,19.13
2019-05-09T22:43:48.083Z,19.47
2019-05-09T22:46:20.282Z,23.57
2019-05-09T22:48:52.735Z,23.00
2019-05-09T22:51:25.161Z,22.50
2019-05-09T22:54:11.590Z,25.77
2019-05-09T22:56:31.411Z,20.57
2019-05-09T22:59:03.670Z,19.13
2019-05-09T23:01:35.873Z,24.80
2019-05-09T23:04:08.126Z,26.23
2019-05-09T23:06:40.344Z,23.60
2019-05-09T23:09:12.587Z,26.30
2019-05-09T23:11:44.858Z,22.17
2019-05-09T23:14:17.083Z,23.23
2019-05-09T23:16:50.679Z,26.00
2019-05-09T23:19:23.223Z,22.83
2019-05-09T23:21:55.496Z,26.07
2019-05-09T23:24:28.903Z,28.67
2019-05-09T23:27:01.447Z,25.53
2019-05-09T23:29:35.755Z,28.50
2019-05-09T23:32:07.842Z,29.97
2019-05-09T23:34:40.079Z,29.47
2019-05-09T23:37:12.330Z,25.77
2019-05-09T23:39:44.544Z,28.47
2019-05-09T23:42:16.747Z,27.60
2019-05-09T23:44:48.837Z,27.17
2019-05-09T23:47:21.043Z,33.33
2019-05-09T23:49:53.271Z,27.00
2019-05-09T23:52:25.501Z,27.63
2019-05-09T23:54:57.831Z,33.47
2019-05-09T23:57:30.123Z,29.60
